sensor_id;sensor_type;location;lat;lon;timestamp;P1;durP1;ratioP1;P2;durP2;ratioP2
56720;SDS011;53183;47.412;18.884;2023-12-29T00:00:30;31.20;;;15.40;;
56720;SDS011;53183;47.412;18.884;2023-12-29T00:02:57;32.45;;;16.37;;
56720;SDS011;53183;47.412;18.884;2023-12-29T00:05:24;29.63;;;15.13;;
56720;SDS011;53183;47.412;18.884;2023-12-29T00:07:51;31.92;;;15.18;;
56720;SDS011;53183;47.412;18.884;2023-12-29T00:10:18;27.52;;;15.00;;
56720;SDS011;53183;47.412;18.884;2023-12-29T00:12:47;32.47;;;15.63;;
56720;SDS011;53183;47.412;18.884;2023-12-29T00:15:17;25.98;;;14.48;;
56720;SDS011;53183;47.412;18.884;2023-12-29T00:17:45;38.20;;;16.37;;
56720;SDS011;53183;47.412;18.884;2023-12-29T00:20:14;30.35;;;15.98;;
56720;SDS011;53183;47.412;18.884;2023-12-29T00:23:00;26.17;;;15.48;;
56720;SDS011;53183;47.412;18.884;2023-12-29T00:25:27;30.75;;;15.63;;
56720;SDS011;53183;47.412;18.884;2023-12-29T00:27:54;29.02;;;14.82;;
56720;SDS011;53183;47.412;18.884;2023-12-29T00:30:23;28.62;;;15.88;;
56720;SDS011;53183;47.412;18.884;2023-12-29T00:33:05;29.75;;;13.85;;
56720;SDS011;53183;47.412;18.884;2023-12-29T00:35:33;31.05;;;14.27;;
56720;SDS011;53183;47.412;18.884;2023-12-29T00:38:04;27.30;;;13.77;;
56720;SDS011;53183;47.412;18.884;2023-12-29T00:40:33;26.92;;;14.98;;
56720;SDS011;53183;47.412;18.884;2023-12-29T00:43:00;31.85;;;15.63;;
56720;SDS011;53183;47.412;18.884;2023-12-29T00:45:28;35.40;;;15.63;;
56720;SDS011;53183;47.412;18.884;2023-12-29T00:48:00;30.85;;;15.25;;
56720;SDS011;53183;47.412;18.884;2023-12-29T00:50:28;36.25;;;16.48;;
56720;SDS011;53183;47.412;18.884;2023-12-29T00:52:56;28.10;;;15.77;;
56720;SDS011;53183;47.412;18.884;2023-12-29T00:55:23;29.85;;;15.30;;
56720;SDS011;53183;47.412;18.884;2023-12-29T00:57:51;41.70;;;15.35;;
56720;SDS011;53183;47.412;18.884;2023-12-29T01:00:19;34.72;;;14.82;;
56720;SDS011;53183;47.412;18.884;2023-12-29T01:02:46;29.00;;;15.40;;
56720;SDS011;53183;47.412;18.884;2023-12-29T01:05:16;37.67;;;18.33;;
56720;SDS011;53183;47.412;18.884;2023-12-29T01:07:46;37.63;;;16.30;;
56720;SDS011;53183;47.412;18.884;2023-12-29T01:10:14;33.92;;;17.02;;
56720;SDS011;53183;47.412;18.884;2023-12-29T01:12:43;28.27;;;14.63;;
56720;SDS011;53183;47.412;18.884;2023-12-29T01:15:10;29.48;;;14.25;;
56720;SDS011;53183;47.412;18.884;2023-12-29T01:17:38;26.77;;;13.75;;
56720;SDS011;53183;47.412;18.884;2023-12-29T01:20:06;28.98;;;13.35;;
56720;SDS011;53183;47.412;18.884;2023-12-29T01:22:35;26.52;;;13.70;;
56720;SDS011;53183;47.412;18.884;2023-12-29T01:25:02;28.50;;;13.48;;
56720;SDS011;53183;47.412;18.884;2023-12-29T01:27:30;25.40;;;13.38;;
56720;SDS011;53183;47.412;18.884;2023-12-29T01:29:58;25.20;;;14.48;;
56720;SDS011;53183;47.412;18.884;2023-12-29T01:32:29;24.12;;;13.02;;
56720;SDS011;53183;47.412;18.884;2023-12-29T01:34:57;25.77;;;13.05;;
56720;SDS011;53183;47.412;18.884;2023-12-29T01:37:25;33.30;;;13.07;;
56720;SDS011;53183;47.412;18.884;2023-12-29T01:39:52;29.90;;;13.45;;
56720;SDS011;53183;47.412;18.884;2023-12-29T01:42:20;29.40;;;14.40;;
56720;SDS011;53183;47.412;18.884;2023-12-29T01:44:47;25.70;;;14.05;;
56720;SDS011;53183;47.412;18.884;2023-12-29T01:47:21;29.27;;;13.88;;
56720;SDS011;53183;47.412;18.884;2023-12-29T01:49:49;23.02;;;11.35;;
56720;SDS011;53183;47.412;18.884;2023-12-29T01:52:19;28.52;;;12.65;;
56720;SDS011;53183;47.412;18.884;2023-12-29T01:54:47;27.40;;;13.07;;
56720;SDS011;53183;47.412;18.884;2023-12-29T01:57:17;27.02;;;12.93;;
56720;SDS011;53183;47.412;18.884;2023-12-29T01:59:45;25.12;;;13.05;;
56720;SDS011;53183;47.412;18.884;2023-12-29T02:02:12;25.80;;;13.43;;
56720;SDS011;53183;47.412;18.884;2023-12-29T02:04:41;31.92;;;13.93;;
56720;SDS011;53183;47.412;18.884;2023-12-29T02:07:09;29.75;;;13.93;;
56720;SDS011;53183;47.412;18.884;2023-12-29T02:09:36;31.98;;;16.17;;
56720;SDS011;53183;47.412;18.884;2023-12-29T02:12:05;27.85;;;15.10;;
56720;SDS011;53183;47.412;18.884;2023-12-29T02:14:32;28.60;;;15.93;;
56720;SDS011;53183;47.412;18.884;2023-12-29T02:17:07;42.78;;;16.87;;
56720;SDS011;53183;47.412;18.884;2023-12-29T02:19:43;31.08;;;16.37;;
56720;SDS011;53183;47.412;18.884;2023-12-29T02:22:12;39.20;;;17.73;;
56720;SDS011;53183;47.412;18.884;2023-12-29T02:24:43;35.63;;;17.73;;
56720;SDS011;53183;47.412;18.884;2023-12-29T02:27:18;38.30;;;19.23;;
56720;SDS011;53183;47.412;18.884;2023-12-29T02:29:52;37.60;;;18.50;;
56720;SDS011;53183;47.412;18.884;2023-12-29T02:32:31;33.83;;;16.87;;
56720;SDS011;53183;47.412;18.884;2023-12-29T02:35:02;37.88;;;18.08;;
56720;SDS011;53183;47.412;18.884;2023-12-29T02:37:31;34.33;;;17.50;;
56720;SDS011;53183;47.412;18.884;2023-12-29T02:39:58;32.28;;;17.83;;
56720;SDS011;53183;47.412;18.884;2023-12-29T02:42:29;38.33;;;18.80;;
56720;SDS011;53183;47.412;18.884;2023-12-29T02:44:56;32.88;;;16.73;;
56720;SDS011;53183;47.412;18.884;2023-12-29T02:47:23;40.45;;;17.65;;
56720;SDS011;53183;47.412;18.884;2023-12-29T02:49:50;34.28;;;17.23;;
56720;SDS011;53183;47.412;18.884;2023-12-29T02:52:18;30.95;;;15.90;;
56720;SDS011;53183;47.412;18.884;2023-12-29T02:54:45;39.30;;;16.87;;
56720;SDS011;53183;47.412;18.884;2023-12-29T02:57:12;33.75;;;18.20;;
56720;SDS011;53183;47.412;18.884;2023-12-29T02:59:39;37.65;;;18.62;;
56720;SDS011;53183;47.412;18.884;2023-12-29T03:02:06;36.70;;;18.15;;
56720;SDS011;53183;47.412;18.884;2023-12-29T03:04:35;40.05;;;17.80;;
56720;SDS011;53183;47.412;18.884;2023-12-29T03:07:03;37.85;;;17.20;;
56720;SDS011;53183;47.412;18.884;2023-12-29T03:09:30;35.60;;;16.40;;
56720;SDS011;53183;47.412;18.884;2023-12-29T03:11:58;37.45;;;16.98;;
56720;SDS011;53183;47.412;18.884;2023-12-29T03:14:25;30.73;;;15.80;;
56720;SDS011;53183;47.412;18.884;2023-12-29T03:16:53;32.67;;;15.20;;
56720;SDS011;53183;47.412;18.884;2023-12-29T03:19:20;36.55;;;16.95;;
56720;SDS011;53183;47.412;18.884;2023-12-29T03:21:53;37.55;;;16.23;;
56720;SDS011;53183;47.412;18.884;2023-12-29T03:24:21;29.67;;;15.40;;
56720;SDS011;53183;47.412;18.884;2023-12-29T03:26:49;31.00;;;15.52;;
56720;SDS011;53183;47.412;18.884;2023-12-29T03:29:16;24.58;;;14.65;;
56720;SDS011;53183;47.412;18.884;2023-12-29T03:31:44;36.22;;;17.25;;
56720;SDS011;53183;47.412;18.884;2023-12-29T03:34:12;32.42;;;15.80;;
56720;SDS011;53183;47.412;18.884;2023-12-29T03:36:40;30.40;;;15.93;;
56720;SDS011;53183;47.412;18.884;2023-12-29T03:39:08;38.88;;;19.50;;
56720;SDS011;53183;47.412;18.884;2023-12-29T03:41:35;40.03;;;20.15;;
56720;SDS011;53183;47.412;18.884;2023-12-29T03:44:02;40.65;;;19.90;;
56720;SDS011;53183;47.412;18.884;2023-12-29T03:46:30;54.65;;;26.73;;
56720;SDS011;53183;47.412;18.884;2023-12-29T03:48:58;50.78;;;25.83;;
56720;SDS011;53183;47.412;18.884;2023-12-29T03:51:26;59.15;;;25.90;;
56720;SDS011;53183;47.412;18.884;2023-12-29T03:53:53;56.25;;;27.58;;
56720;SDS011;53183;47.412;18.884;2023-12-29T03:56:21;61.03;;;27.17;;
56720;SDS011;53183;47.412;18.884;2023-12-29T03:58:49;52.35;;;27.77;;
56720;SDS011;53183;47.412;18.884;2023-12-29T04:01:16;58.95;;;26.37;;
56720;SDS011;53183;47.412;18.884;2023-12-29T04:03:46;51.40;;;25.27;;
56720;SDS011;53183;47.412;18.884;2023-12-29T04:06:13;58.03;;;26.35;;
56720;SDS011;53183;47.412;18.884;2023-12-29T04:08:41;44.63;;;21.17;;
56720;SDS011;53183;47.412;18.884;2023-12-29T04:11:08;45.70;;;23.17;;
56720;SDS011;53183;47.412;18.884;2023-12-29T04:13:37;49.47;;;23.73;;
56720;SDS011;53183;47.412;18.884;2023-12-29T04:16:04;46.88;;;23.00;;
56720;SDS011;53183;47.412;18.884;2023-12-29T04:18:32;47.20;;;22.65;;
56720;SDS011;53183;47.412;18.884;2023-12-29T04:21:01;43.92;;;21.80;;
56720;SDS011;53183;47.412;18.884;2023-12-29T04:23:29;39.63;;;21.67;;
56720;SDS011;53183;47.412;18.884;2023-12-29T04:25:57;41.40;;;21.25;;
56720;SDS011;53183;47.412;18.884;2023-12-29T04:28:24;61.13;;;27.95;;
56720;SDS011;53183;47.412;18.884;2023-12-29T04:30:53;114.03;;;40.70;;
56720;SDS011;53183;47.412;18.884;2023-12-29T04:33:21;84.10;;;34.88;;
56720;SDS011;53183;47.412;18.884;2023-12-29T04:35:49;130.43;;;48.13;;
56720;SDS011;53183;47.412;18.884;2023-12-29T04:38:17;160.07;;;59.65;;
56720;SDS011;53183;47.412;18.884;2023-12-29T04:40:47;236.32;;;87.70;;
56720;SDS011;53183;47.412;18.884;2023-12-29T04:43:14;255.65;;;90.68;;
56720;SDS011;53183;47.412;18.884;2023-12-29T04:45:41;213.37;;;81.10;;
56720;SDS011;53183;47.412;18.884;2023-12-29T04:48:09;206.40;;;78.60;;
56720;SDS011;53183;47.412;18.884;2023-12-29T04:50:37;146.68;;;54.38;;
56720;SDS011;53183;47.412;18.884;2023-12-29T04:53:04;124.38;;;47.55;;
56720;SDS011;53183;47.412;18.884;2023-12-29T04:55:32;116.53;;;44.17;;
56720;SDS011;53183;47.412;18.884;2023-12-29T04:58:00;93.80;;;39.15;;
56720;SDS011;53183;47.412;18.884;2023-12-29T05:00:28;91.80;;;37.53;;
56720;SDS011;53183;47.412;18.884;2023-12-29T05:02:55;77.87;;;32.47;;
56720;SDS011;53183;47.412;18.884;2023-12-29T05:05:23;75.22;;;32.83;;
56720;SDS011;53183;47.412;18.884;2023-12-29T05:07:50;56.75;;;28.27;;
56720;SDS011;53183;47.412;18.884;2023-12-29T05:10:18;65.87;;;27.25;;
56720;SDS011;53183;47.412;18.884;2023-12-29T05:12:46;81.22;;;30.98;;
56720;SDS011;53183;47.412;18.884;2023-12-29T05:15:13;80.18;;;31.10;;
56720;SDS011;53183;47.412;18.884;2023-12-29T05:17:41;71.95;;;28.15;;
56720;SDS011;53183;47.412;18.884;2023-12-29T05:20:11;81.68;;;33.28;;
56720;SDS011;53183;47.412;18.884;2023-12-29T05:22:38;89.37;;;37.45;;
56720;SDS011;53183;47.412;18.884;2023-12-29T05:25:07;128.55;;;48.67;;
56720;SDS011;53183;47.412;18.884;2023-12-29T05:27:35;108.15;;;44.63;;
56720;SDS011;53183;47.412;18.884;2023-12-29T05:30:05;119.28;;;45.10;;
56720;SDS011;53183;47.412;18.884;2023-12-29T05:32:33;160.37;;;51.37;;
56720;SDS011;53183;47.412;18.884;2023-12-29T05:35:00;103.57;;;42.03;;
56720;SDS011;53183;47.412;18.884;2023-12-29T05:37:28;81.60;;;35.40;;
56720;SDS011;53183;47.412;18.884;2023-12-29T05:39:56;86.25;;;36.00;;
56720;SDS011;53183;47.412;18.884;2023-12-29T05:42:23;93.53;;;34.08;;
56720;SDS011;53183;47.412;18.884;2023-12-29T05:44:55;67.28;;;32.15;;
56720;SDS011;53183;47.412;18.884;2023-12-29T05:47:22;64.70;;;29.63;;
56720;SDS011;53183;47.412;18.884;2023-12-29T05:49:49;78.47;;;30.55;;
56720;SDS011;53183;47.412;18.884;2023-12-29T05:52:17;62.97;;;28.90;;
56720;SDS011;53183;47.412;18.884;2023-12-29T05:54:44;68.78;;;27.87;;
56720;SDS011;53183;47.412;18.884;2023-12-29T05:57:14;60.80;;;26.52;;
56720;SDS011;53183;47.412;18.884;2023-12-29T05:59:42;68.47;;;31.45;;
56720;SDS011;53183;47.412;18.884;2023-12-29T06:02:09;70.10;;;27.50;;
56720;SDS011;53183;47.412;18.884;2023-12-29T06:04:37;78.85;;;26.65;;
56720;SDS011;53183;47.412;18.884;2023-12-29T06:07:05;51.53;;;24.77;;
56720;SDS011;53183;47.412;18.884;2023-12-29T06:09:32;50.97;;;24.08;;
56720;SDS011;53183;47.412;18.884;2023-12-29T06:12:00;76.28;;;25.52;;
56720;SDS011;53183;47.412;18.884;2023-12-29T06:14:27;49.13;;;23.23;;
56720;SDS011;53183;47.412;18.884;2023-12-29T06:16:54;98.90;;;28.83;;
56720;SDS011;53183;47.412;18.884;2023-12-29T06:19:22;74.75;;;27.05;;
56720;SDS011;53183;47.412;18.884;2023-12-29T06:21:50;57.90;;;23.02;;
56720;SDS011;53183;47.412;18.884;2023-12-29T06:24:17;43.42;;;19.83;;
56720;SDS011;53183;47.412;18.884;2023-12-29T06:26:45;58.58;;;20.50;;
56720;SDS011;53183;47.412;18.884;2023-12-29T06:29:14;62.47;;;19.35;;
56720;SDS011;53183;47.412;18.884;2023-12-29T06:31:41;33.95;;;16.50;;
56720;SDS011;53183;47.412;18.884;2023-12-29T06:34:10;37.30;;;18.70;;
56720;SDS011;53183;47.412;18.884;2023-12-29T06:36:38;39.30;;;18.95;;
56720;SDS011;53183;47.412;18.884;2023-12-29T06:39:05;36.25;;;17.75;;
56720;SDS011;53183;47.412;18.884;2023-12-29T06:41:33;34.63;;;18.37;;
56720;SDS011;53183;47.412;18.884;2023-12-29T06:44:02;37.95;;;18.98;;
56720;SDS011;53183;47.412;18.884;2023-12-29T06:46:29;44.85;;;20.10;;
56720;SDS011;53183;47.412;18.884;2023-12-29T06:48:57;39.65;;;19.12;;
56720;SDS011;53183;47.412;18.884;2023-12-29T06:51:25;49.92;;;22.37;;
56720;SDS011;53183;47.412;18.884;2023-12-29T06:53:52;42.62;;;21.33;;
56720;SDS011;53183;47.412;18.884;2023-12-29T06:56:20;47.95;;;21.73;;
56720;SDS011;53183;47.412;18.884;2023-12-29T06:58:48;42.40;;;20.65;;
56720;SDS011;53183;47.412;18.884;2023-12-29T07:01:15;50.50;;;20.52;;
56720;SDS011;53183;47.412;18.884;2023-12-29T07:03:43;38.13;;;19.12;;
56720;SDS011;53183;47.412;18.884;2023-12-29T07:06:12;40.15;;;18.65;;
56720;SDS011;53183;47.412;18.884;2023-12-29T07:08:40;42.80;;;20.30;;
56720;SDS011;53183;47.412;18.884;2023-12-29T07:11:11;34.03;;;19.92;;
56720;SDS011;53183;47.412;18.884;2023-12-29T07:13:39;37.20;;;19.10;;
56720;SDS011;53183;47.412;18.884;2023-12-29T07:16:06;43.08;;;20.70;;
56720;SDS011;53183;47.412;18.884;2023-12-29T07:18:35;47.15;;;23.10;;
56720;SDS011;53183;47.412;18.884;2023-12-29T07:21:02;37.75;;;19.92;;
56720;SDS011;53183;47.412;18.884;2023-12-29T07:23:30;36.25;;;18.85;;
56720;SDS011;53183;47.412;18.884;2023-12-29T07:25:58;35.97;;;18.02;;
56720;SDS011;53183;47.412;18.884;2023-12-29T07:28:25;32.63;;;18.70;;
56720;SDS011;53183;47.412;18.884;2023-12-29T07:30:53;41.00;;;20.10;;
56720;SDS011;53183;47.412;18.884;2023-12-29T07:33:20;32.85;;;18.27;;
56720;SDS011;53183;47.412;18.884;2023-12-29T07:35:48;40.20;;;21.05;;
56720;SDS011;53183;47.412;18.884;2023-12-29T07:38:16;38.20;;;20.98;;
56720;SDS011;53183;47.412;18.884;2023-12-29T07:40:44;47.17;;;24.55;;
56720;SDS011;53183;47.412;18.884;2023-12-29T07:43:11;42.90;;;22.70;;
56720;SDS011;53183;47.412;18.884;2023-12-29T07:45:39;42.47;;;21.80;;
56720;SDS011;53183;47.412;18.884;2023-12-29T07:48:07;51.05;;;27.92;;
56720;SDS011;53183;47.412;18.884;2023-12-29T07:50:37;48.55;;;24.27;;
56720;SDS011;53183;47.412;18.884;2023-12-29T07:53:04;50.60;;;24.67;;
56720;SDS011;53183;47.412;18.884;2023-12-29T07:55:37;47.95;;;24.35;;
56720;SDS011;53183;47.412;18.884;2023-12-29T07:58:05;44.40;;;24.23;;
56720;SDS011;53183;47.412;18.884;2023-12-29T08:00:33;43.50;;;23.75;;
56720;SDS011;53183;47.412;18.884;2023-12-29T08:03:01;48.92;;;25.50;;
56720;SDS011;53183;47.412;18.884;2023-12-29T08:05:28;50.55;;;25.12;;
56720;SDS011;53183;47.412;18.884;2023-12-29T08:07:56;48.35;;;26.17;;
56720;SDS011;53183;47.412;18.884;2023-12-29T08:10:25;43.78;;;23.42;;
56720;SDS011;53183;47.412;18.884;2023-12-29T08:12:53;48.83;;;25.35;;
56720;SDS011;53183;47.412;18.884;2023-12-29T08:15:26;45.88;;;22.45;;
56720;SDS011;53183;47.412;18.884;2023-12-29T08:17:55;33.42;;;20.60;;
56720;SDS011;53183;47.412;18.884;2023-12-29T08:20:22;44.17;;;22.62;;
56720;SDS011;53183;47.412;18.884;2023-12-29T08:22:54;46.42;;;22.48;;
56720;SDS011;53183;47.412;18.884;2023-12-29T08:25:23;38.78;;;21.55;;
56720;SDS011;53183;47.412;18.884;2023-12-29T08:27:50;39.03;;;20.62;;
56720;SDS011;53183;47.412;18.884;2023-12-29T08:30:23;42.05;;;20.65;;
56720;SDS011;53183;47.412;18.884;2023-12-29T08:32:51;35.35;;;18.55;;
56720;SDS011;53183;47.412;18.884;2023-12-29T08:35:20;29.15;;;14.20;;
56720;SDS011;53183;47.412;18.884;2023-12-29T08:37:49;30.98;;;14.23;;
56720;SDS011;53183;47.412;18.884;2023-12-29T08:40:17;22.67;;;12.93;;
56720;SDS011;53183;47.412;18.884;2023-12-29T08:42:44;17.77;;;9.00;;
56720;SDS011;53183;47.412;18.884;2023-12-29T08:45:14;18.75;;;10.70;;
56720;SDS011;53183;47.412;18.884;2023-12-29T08:47:42;18.12;;;9.27;;
56720;SDS011;53183;47.412;18.884;2023-12-29T08:50:09;22.08;;;11.20;;
56720;SDS011;53183;47.412;18.884;2023-12-29T08:52:39;16.10;;;9.23;;
56720;SDS011;53183;47.412;18.884;2023-12-29T08:55:08;15.63;;;8.27;;
56720;SDS011;53183;47.412;18.884;2023-12-29T08:57:36;18.75;;;10.05;;
56720;SDS011;53183;47.412;18.884;2023-12-29T09:00:03;16.15;;;8.98;;
56720;SDS011;53183;47.412;18.884;2023-12-29T09:02:32;17.23;;;8.82;;
56720;SDS011;53183;47.412;18.884;2023-12-29T09:04:59;16.45;;;9.10;;
56720;SDS011;53183;47.412;18.884;2023-12-29T09:07:27;13.57;;;8.00;;
56720;SDS011;53183;47.412;18.884;2023-12-29T09:09:55;16.58;;;9.73;;
56720;SDS011;53183;47.412;18.884;2023-12-29T09:12:23;18.50;;;9.77;;
56720;SDS011;53183;47.412;18.884;2023-12-29T09:14:50;21.98;;;9.60;;
56720;SDS011;53183;47.412;18.884;2023-12-29T09:17:18;15.05;;;8.65;;
56720;SDS011;53183;47.412;18.884;2023-12-29T09:19:46;16.62;;;7.87;;
56720;SDS011;53183;47.412;18.884;2023-12-29T09:22:27;13.48;;;8.13;;
56720;SDS011;53183;47.412;18.884;2023-12-29T09:24:55;15.75;;;9.02;;
56720;SDS011;53183;47.412;18.884;2023-12-29T09:27:23;19.42;;;10.07;;
56720;SDS011;53183;47.412;18.884;2023-12-29T09:29:52;22.85;;;13.02;;
56720;SDS011;53183;47.412;18.884;2023-12-29T09:32:19;20.60;;;11.93;;
56720;SDS011;53183;47.412;18.884;2023-12-29T09:34:47;37.72;;;17.35;;
56720;SDS011;53183;47.412;18.884;2023-12-29T09:37:15;30.08;;;16.67;;
56720;SDS011;53183;47.412;18.884;2023-12-29T09:39:43;23.95;;;12.48;;
56720;SDS011;53183;47.412;18.884;2023-12-29T09:42:12;19.60;;;12.07;;
56720;SDS011;53183;47.412;18.884;2023-12-29T09:44:51;23.42;;;11.27;;
56720;SDS011;53183;47.412;18.884;2023-12-29T09:47:20;20.17;;;10.32;;
56720;SDS011;53183;47.412;18.884;2023-12-29T09:49:53;23.12;;;10.60;;
56720;SDS011;53183;47.412;18.884;2023-12-29T09:52:21;17.08;;;9.70;;
56720;SDS011;53183;47.412;18.884;2023-12-29T09:54:51;15.00;;;9.23;;
56720;SDS011;53183;47.412;18.884;2023-12-29T09:57:20;15.63;;;8.30;;
56720;SDS011;53183;47.412;18.884;2023-12-29T09:59:49;14.02;;;7.82;;
56720;SDS011;53183;47.412;18.884;2023-12-29T10:02:19;11.12;;;7.25;;
56720;SDS011;53183;47.412;18.884;2023-12-29T10:04:49;16.52;;;7.60;;
56720;SDS011;53183;47.412;18.884;2023-12-29T10:07:23;14.90;;;8.10;;
56720;SDS011;53183;47.412;18.884;2023-12-29T10:09:56;12.05;;;7.03;;
56720;SDS011;53183;47.412;18.884;2023-12-29T10:12:26;13.30;;;7.45;;
56720;SDS011;53183;47.412;18.884;2023-12-29T10:18:00;12.32;;;7.93;;
56720;SDS011;53183;47.412;18.884;2023-12-29T10:20:40;15.48;;;8.85;;
56720;SDS011;53183;47.412;18.884;2023-12-29T10:23:25;15.98;;;8.90;;
56720;SDS011;53183;47.412;18.884;2023-12-29T10:25:59;15.57;;;8.63;;
56720;SDS011;53183;47.412;18.884;2023-12-29T10:28:28;15.75;;;8.80;;
56720;SDS011;53183;47.412;18.884;2023-12-29T10:30:55;16.98;;;8.80;;
56720;SDS011;53183;47.412;18.884;2023-12-29T10:33:23;14.45;;;8.63;;
56720;SDS011;53183;47.412;18.884;2023-12-29T10:35:56;19.52;;;9.43;;
56720;SDS011;53183;47.412;18.884;2023-12-29T10:38:27;17.30;;;9.35;;
56720;SDS011;53183;47.412;18.884;2023-12-29T10:43:55;19.08;;;9.35;;
56720;SDS011;53183;47.412;18.884;2023-12-29T10:46:33;13.77;;;8.10;;
56720;SDS011;53183;47.412;18.884;2023-12-29T10:51:38;15.57;;;8.95;;
56720;SDS011;53183;47.412;18.884;2023-12-29T10:54:06;17.75;;;9.82;;
56720;SDS011;53183;47.412;18.884;2023-12-29T10:56:34;20.85;;;9.85;;
56720;SDS011;53183;47.412;18.884;2023-12-29T10:59:02;20.67;;;8.88;;
56720;SDS011;53183;47.412;18.884;2023-12-29T11:01:30;14.90;;;10.02;;
56720;SDS011;53183;47.412;18.884;2023-12-29T11:04:08;14.00;;;7.87;;
56720;SDS011;53183;47.412;18.884;2023-12-29T11:06:43;13.07;;;8.70;;
56720;SDS011;53183;47.412;18.884;2023-12-29T11:09:14;13.43;;;7.97;;
56720;SDS011;53183;47.412;18.884;2023-12-29T11:11:43;17.83;;;9.75;;
56720;SDS011;53183;47.412;18.884;2023-12-29T11:14:10;19.20;;;9.27;;
56720;SDS011;53183;47.412;18.884;2023-12-29T11:16:40;19.35;;;9.43;;
56720;SDS011;53183;47.412;18.884;2023-12-29T11:19:09;14.98;;;8.25;;
56720;SDS011;53183;47.412;18.884;2023-12-29T11:21:39;16.42;;;8.93;;
56720;SDS011;53183;47.412;18.884;2023-12-29T11:24:08;13.75;;;7.40;;
56720;SDS011;53183;47.412;18.884;2023-12-29T11:26:38;12.57;;;7.03;;
56720;SDS011;53183;47.412;18.884;2023-12-29T11:29:07;12.82;;;8.18;;
56720;SDS011;53183;47.412;18.884;2023-12-29T11:31:35;17.58;;;9.63;;
56720;SDS011;53183;47.412;18.884;2023-12-29T11:34:08;14.77;;;8.60;;
56720;SDS011;53183;47.412;18.884;2023-12-29T11:36:41;13.30;;;8.00;;
56720;SDS011;53183;47.412;18.884;2023-12-29T11:39:27;14.57;;;6.90;;
56720;SDS011;53183;47.412;18.884;2023-12-29T11:42:47;13.02;;;8.00;;
56720;SDS011;53183;47.412;18.884;2023-12-29T11:44:59;16.30;;;9.10;;
56720;SDS011;53183;47.412;18.884;2023-12-29T11:47:52;18.08;;;9.55;;
56720;SDS011;53183;47.412;18.884;2023-12-29T11:50:32;17.02;;;10.02;;
56720;SDS011;53183;47.412;18.884;2023-12-29T11:53:00;27.13;;;12.98;;
56720;SDS011;53183;47.412;18.884;2023-12-29T11:55:30;27.95;;;15.23;;
56720;SDS011;53183;47.412;18.884;2023-12-29T11:57:59;34.15;;;18.65;;
56720;SDS011;53183;47.412;18.884;2023-12-29T12:03:18;31.23;;;19.10;;
56720;SDS011;53183;47.412;18.884;2023-12-29T12:05:51;30.95;;;18.58;;
56720;SDS011;53183;47.412;18.884;2023-12-29T12:08:29;33.70;;;18.55;;
56720;SDS011;53183;47.412;18.884;2023-12-29T12:14:04;33.47;;;18.50;;
56720;SDS011;53183;47.412;18.884;2023-12-29T12:16:55;41.50;;;21.27;;
56720;SDS011;53183;47.412;18.884;2023-12-29T12:19:36;33.90;;;19.00;;
56720;SDS011;53183;47.412;18.884;2023-12-29T12:22:04;30.67;;;19.15;;
56720;SDS011;53183;47.412;18.884;2023-12-29T12:24:33;31.17;;;18.80;;
56720;SDS011;53183;47.412;18.884;2023-12-29T12:27:03;30.08;;;17.50;;
56720;SDS011;53183;47.412;18.884;2023-12-29T12:29:36;27.10;;;16.27;;
56720;SDS011;53183;47.412;18.884;2023-12-29T12:32:06;28.55;;;15.90;;
56720;SDS011;53183;47.412;18.884;2023-12-29T12:34:36;23.58;;;14.87;;
56720;SDS011;53183;47.412;18.884;2023-12-29T12:37:05;21.33;;;14.18;;
56720;SDS011;53183;47.412;18.884;2023-12-29T12:39:40;23.75;;;14.48;;
56720;SDS011;53183;47.412;18.884;2023-12-29T12:42:08;24.35;;;13.73;;
56720;SDS011;53183;47.412;18.884;2023-12-29T12:44:38;20.83;;;12.23;;
56720;SDS011;53183;47.412;18.884;2023-12-29T12:47:14;23.15;;;12.90;;
56720;SDS011;53183;47.412;18.884;2023-12-29T12:49:45;20.27;;;13.05;;
56720;SDS011;53183;47.412;18.884;2023-12-29T12:52:15;21.55;;;13.68;;
56720;SDS011;53183;47.412;18.884;2023-12-29T12:54:43;28.62;;;15.55;;
56720;SDS011;53183;47.412;18.884;2023-12-29T12:57:10;23.48;;;14.45;;
56720;SDS011;53183;47.412;18.884;2023-12-29T12:59:38;24.08;;;14.32;;
56720;SDS011;53183;47.412;18.884;2023-12-29T13:02:07;22.27;;;11.68;;
56720;SDS011;53183;47.412;18.884;2023-12-29T13:04:38;18.75;;;11.23;;
56720;SDS011;53183;47.412;18.884;2023-12-29T13:07:09;18.12;;;10.80;;
56720;SDS011;53183;47.412;18.884;2023-12-29T13:09:42;19.45;;;12.13;;
56720;SDS011;53183;47.412;18.884;2023-12-29T13:12:11;23.33;;;13.18;;
56720;SDS011;53183;47.412;18.884;2023-12-29T13:14:39;28.08;;;13.00;;
56720;SDS011;53183;47.412;18.884;2023-12-29T13:17:07;25.83;;;15.63;;
56720;SDS011;53183;47.412;18.884;2023-12-29T13:19:39;22.83;;;13.90;;
56720;SDS011;53183;47.412;18.884;2023-12-29T13:22:08;24.87;;;14.68;;
56720;SDS011;53183;47.412;18.884;2023-12-29T13:24:42;24.00;;;14.95;;
56720;SDS011;53183;47.412;18.884;2023-12-29T13:27:14;30.75;;;19.42;;
56720;SDS011;53183;47.412;18.884;2023-12-29T13:29:43;30.58;;;17.48;;
56720;SDS011;53183;47.412;18.884;2023-12-29T13:32:15;26.05;;;14.95;;
56720;SDS011;53183;47.412;18.884;2023-12-29T13:34:50;22.60;;;13.50;;
56720;SDS011;53183;47.412;18.884;2023-12-29T13:37:25;24.35;;;14.63;;
56720;SDS011;53183;47.412;18.884;2023-12-29T13:40:09;26.42;;;14.20;;
56720;SDS011;53183;47.412;18.884;2023-12-29T13:42:45;28.80;;;16.85;;
56720;SDS011;53183;47.412;18.884;2023-12-29T13:45:15;30.12;;;15.60;;
56720;SDS011;53183;47.412;18.884;2023-12-29T13:47:46;27.70;;;15.23;;
56720;SDS011;53183;47.412;18.884;2023-12-29T13:50:14;29.25;;;14.87;;
56720;SDS011;53183;47.412;18.884;2023-12-29T13:52:42;25.48;;;13.73;;
56720;SDS011;53183;47.412;18.884;2023-12-29T13:55:10;21.83;;;13.55;;
56720;SDS011;53183;47.412;18.884;2023-12-29T13:57:39;25.60;;;14.02;;
56720;SDS011;53183;47.412;18.884;2023-12-29T14:00:16;25.85;;;14.55;;
56720;SDS011;53183;47.412;18.884;2023-12-29T14:02:57;26.65;;;15.05;;
56720;SDS011;53183;47.412;18.884;2023-12-29T14:10:35;29.50;;;16.33;;
56720;SDS011;53183;47.412;18.884;2023-12-29T14:13:07;25.37;;;14.57;;
56720;SDS011;53183;47.412;18.884;2023-12-29T14:15:36;32.20;;;15.18;;
56720;SDS011;53183;47.412;18.884;2023-12-29T14:18:09;29.77;;;16.87;;
56720;SDS011;53183;47.412;18.884;2023-12-29T14:20:40;26.90;;;16.37;;
56720;SDS011;53183;47.412;18.884;2023-12-29T14:23:08;28.10;;;16.40;;
56720;SDS011;53183;47.412;18.884;2023-12-29T14:25:37;29.08;;;16.95;;
56720;SDS011;53183;47.412;18.884;2023-12-29T14:28:15;30.75;;;19.85;;
56720;SDS011;53183;47.412;18.884;2023-12-29T14:30:47;35.78;;;19.77;;
56720;SDS011;53183;47.412;18.884;2023-12-29T14:33:15;32.55;;;17.62;;
56720;SDS011;53183;47.412;18.884;2023-12-29T14:35:42;37.50;;;19.45;;
56720;SDS011;53183;47.412;18.884;2023-12-29T14:38:12;34.70;;;19.60;;
56720;SDS011;53183;47.412;18.884;2023-12-29T14:40:44;41.00;;;22.05;;
56720;SDS011;53183;47.412;18.884;2023-12-29T14:43:13;34.90;;;20.15;;